Time;durP1;ratioP1;P1;durP2;ratioP2;P2;SDS_P1;SDS_P2;PMS_P1;PMS_P2;Temp;Humidity;BMP_temperature;BMP_pressure;BME280_temperature;BME280_humidity;BME280_pressure;Samples;Min_cycle;Max_cycle;Signal;HPM_P1;HPM_P2
2022/12/13 00:03:53;;;;;;;5.20;3.65;;;;;;;17.66;34.58;101083.88;16126961;19;130529;-49
2022/12/13 00:09:16;;;;;;;5.20;3.13;;;;;;;17.61;34.40;101078.19;16128450;19;129725;-49
2022/12/13 00:14:38;;;;;;;5.40;3.50;;;;;;;17.57;34.24;101074.22;16126086;19;129457;-48
2022/12/13 00:20:00;;;;;;;5.85;3.97;;;;;;;17.53;34.55;101073.81;16127251;19;129916;-48
2022/12/13 00:25:21;;;;;;;6.82;3.65;;;;;;;17.51;34.21;101071.28;16122623;19;129619;-48
2022/12/13 00:30:43;;;;;;;9.00;4.45;;;;;;;17.48;34.29;101065.38;16126567;19;129444;-46
2022/12/13 00:36:06;;;;;;;6.47;4.05;;;;;;;17.44;33.95;101064.16;16124961;19;130016;-50
2022/12/13 00:41:31;;;;;;;6.05;3.53;;;;;;;17.41;34.42;101057.19;16124762;19;128871;-47
2022/12/13 00:46:53;;;;;;;5.20;3.83;;;;;;;17.38;34.33;101055.72;16127389;19;134650;-49
2022/12/13 00:52:15;;;;;;;4.57;3.25;;;;;;;17.36;34.37;101045.97;16125523;19;130258;-50
2022/12/13 00:57:36;;;;;;;6.95;3.60;;;;;;;17.33;34.08;101052.00;16126106;19;129530;-50
2022/12/13 01:02:58;;;;;;;4.97;2.90;;;;;;;17.30;34.44;101035.84;16122344;19;130140;-48
2022/12/13 01:08:20;;;;;;;5.13;3.50;;;;;;;17.28;34.11;101032.47;16122242;19;129713;-48
2022/12/13 01:13:42;;;;;;;5.63;3.15;;;;;;;17.24;33.88;101026.56;16122924;19;129211;-52
2022/12/13 01:19:04;;;;;;;4.85;3.25;;;;;;;17.21;34.12;101030.66;16122073;19;129354;-47
2022/12/13 01:24:27;;;;;;;4.57;2.80;;;;;;;17.19;34.40;101026.44;16120244;19;129782;-46
2022/12/13 01:29:49;;;;;;;5.85;3.63;;;;;;;17.16;34.00;101024.97;16122765;19;130368;-48
2022/12/13 01:35:12;;;;;;;4.40;3.00;;;;;;;17.13;34.25;101025.44;16121310;19;129301;-47
2022/12/13 01:40:42;;;;;;;4.13;2.90;;;;;;;17.12;33.99;101017.41;16119905;19;130158;-50
2022/12/13 01:46:05;;;;;;;5.20;3.25;;;;;;;17.08;33.91;101030.84;16118794;19;129988;-47
2022/12/13 01:51:40;;;;;;;3.75;2.88;;;;;;;17.08;33.92;101033.59;16120578;19;129656;-47
2022/12/13 01:57:07;;;;;;;4.00;2.90;;;;;;;17.02;33.79;101029.84;16124494;19;129467;-47
2022/12/13 02:02:29;;;;;;;4.10;3.00;;;;;;;17.01;34.17;101035.59;16120043;19;129619;-48
2022/12/13 02:07:52;;;;;;;4.05;2.58;;;;;;;16.99;33.94;101035.84;16126100;19;129904;-46
2022/12/13 02:13:14;;;;;;;3.85;2.80;;;;;;;16.97;34.05;101031.63;16134364;19;129842;-50
2022/12/13 02:19:04;;;;;;;3.58;2.08;;;;;;;16.96;33.84;101019.72;16134996;19;130575;-48
2022/12/13 02:24:28;;;;;;;2.75;2.20;;;;;;;16.91;34.24;101014.91;16132144;19;130689;-50
2022/12/13 02:30:18;;;;;;;4.32;2.63;;;;;;;16.91;33.98;101014.91;16135797;19;129970;-50
2022/12/13 02:35:54;;;;;;;4.18;2.67;;;;;;;16.87;34.09;101016.41;16137669;19;129099;-50
2022/12/13 02:41:37;;;;;;;4.25;2.47;;;;;;;16.85;34.13;101015.84;16133650;19;130027;-50
2022/12/13 02:47:10;;;;;;;2.90;2.40;;;;;;;16.84;33.82;101007.75;16135791;19;129683;-49
2022/12/13 02:52:34;;;;;;;3.22;2.58;;;;;;;16.80;33.98;101004.63;16133817;19;130399;-48
2022/12/13 02:57:56;;;;;;;4.03;2.92;;;;;;;16.78;33.74;101009.53;16132311;19;129789;-47
2022/12/13 03:03:23;;;;;;;4.38;2.83;;;;;;;16.77;33.68;100999.56;16133358;19;135108;-48
2022/12/13 03:08:47;;;;;;;3.05;2.30;;;;;;;16.75;33.70;101001.69;16132071;19;129685;-50
2022/12/13 03:14:11;;;;;;;3.72;2.53;;;;;;;16.72;33.58;101002.19;16131105;19;129523;-47
2022/12/13 03:19:33;;;;;;;5.57;2.40;;;;;;;16.70;33.88;101009.84;16129843;19;129738;-50
2022/12/13 03:24:55;;;;;;;2.92;2.30;;;;;;;16.69;33.74;101014.53;16130668;19;129324;-49
2022/12/13 03:30:17;;;;;;;3.45;2.50;;;;;;;16.68;33.67;101007.31;16131956;19;129793;-49
2022/12/13 03:35:41;;;;;;;3.17;2.38;;;;;;;16.67;34.02;101005.66;16128269;19;129441;-53
2022/12/13 03:41:12;;;;;;;5.45;2.95;;;;;;;16.65;33.63;100995.84;16128011;19;129542;-49
2022/12/13 03:46:34;;;;;;;4.60;2.75;;;;;;;16.61;34.05;101010.16;16127772;19;130313;-48
2022/12/13 03:51:56;;;;;;;3.22;2.38;;;;;;;16.58;33.57;101002.31;16128134;19;129412;-49
2022/12/13 03:57:18;;;;;;;4.78;2.60;;;;;;;16.58;33.61;100985.75;16125592;19;132065;-50
2022/12/13 04:02:39;;;;;;;3.85;2.78;;;;;;;16.56;33.94;100970.44;16121284;19;129750;-47
2022/12/13 04:08:01;;;;;;;2.85;2.13;;;;;;;16.54;33.79;100967.94;16124494;19;130440;-48
2022/12/13 04:13:32;;;;;;;5.78;2.78;;;;;;;16.52;33.44;100972.84;16124452;19;129404;-49
2022/12/13 04:18:54;;;;;;;3.05;2.10;;;;;;;16.51;33.38;100962.88;16124495;19;129567;-47
2022/12/13 04:24:16;;;;;;;3.95;2.67;;;;;;;16.50;33.65;100961.19;16126543;19;131805;-47
2022/12/13 04:29:38;;;;;;;3.47;2.40;;;;;;;16.47;33.71;100956.97;16125758;19;131208;-48
2022/12/13 04:34:59;;;;;;;3.88;2.60;;;;;;;16.47;33.70;100956.97;16125247;19;129094;-48
2022/12/13 04:40:33;;;;;;;3.40;2.42;;;;;;;16.45;33.35;100961.03;16125368;19;129910;-47
2022/12/13 04:45:55;;;;;;;3.80;2.53;;;;;;;16.44;33.49;100945.53;16125255;19;129942;-48
2022/12/13 04:51:17;;;;;;;3.42;2.30;;;;;;;16.42;33.41;100942.16;16125164;19;129676;-47
2022/12/13 04:56:39;;;;;;;4.07;2.22;;;;;;;16.41;33.46;100934.97;16123801;19;130330;-48
2022/12/13 05:02:00;;;;;;;3.10;2.30;;;;;;;16.39;33.25;100931.56;16123694;19;130642;-47
2022/12/13 05:07:22;;;;;;;3.85;2.40;;;;;;;16.37;33.38;100945.63;16124156;19;129670;-49
2022/12/13 05:12:44;;;;;;;2.58;2.13;;;;;;;16.36;33.18;100932.88;16123757;19;129373;-47
2022/12/13 05:18:06;;;;;;;5.68;2.58;;;;;;;16.35;33.44;100935.91;16127051;19;130646;-49
2022/12/13 05:23:31;;;;;;;3.47;2.50;;;;;;;16.32;33.31;100942.69;16121632;19;130190;-47
2022/12/13 05:28:57;;;;;;;2.95;2.20;;;;;;;16.31;33.19;100941.88;16122225;19;129515;-49
2022/12/13 05:34:18;;;;;;;2.87;2.17;;;;;;;16.29;33.05;100949.53;16125079;19;129799;-47
2022/12/13 05:39:40;;;;;;;3.85;2.10;;;;;;;16.27;33.17;100945.31;16123056;19;129570;-51
2022/12/13 05:45:02;;;;;;;4.07;2.78;;;;;;;16.26;33.13;100938.94;16134821;19;129934;-46
2022/12/13 05:50:24;;;;;;;2.97;1.90;;;;;;;16.25;32.99;100953.81;16138688;19;129168;-47
2022/12/13 05:55:46;;;;;;;2.50;2.00;;;;;;;16.23;33.29;100944.94;16135935;19;130738;-47
2022/12/13 06:01:12;;;;;;;2.92;2.15;;;;;;;16.22;33.02;100954.28;16135073;19;129736;-47
2022/12/13 06:06:34;;;;;;;2.42;2.00;;;;;;;16.21;33.22;100963.66;16133691;19;128909;-49
2022/12/13 06:11:56;;;;;;;3.50;2.00;;;;;;;16.22;33.08;100961.72;16136476;19;129167;-47
2022/12/13 06:17:23;;;;;;;2.38;1.73;;;;;;;16.20;33.38;100945.41;16125813;19;129377;-51
2022/12/13 06:22:45;;;;;;;2.28;1.70;;;;;;;16.37;33.10;100944.78;16118874;19;129783;-50
2022/12/13 06:28:07;;;;;;;2.47;1.77;;;;;;;16.85;32.43;100930.19;16129222;19;129586;-50
2022/12/13 06:33:28;;;;;;;3.53;1.70;;;;;;;17.60;31.84;100936.28;16133595;19;129466;-49
2022/12/13 06:38:50;;;;;;;3.67;2.00;;;;;;;18.36;31.38;100932.72;16132155;19;129334;-47
2022/12/13 06:44:12;;;;;;;2.85;1.90;;;;;;;18.95;30.94;100928.94;16131597;19;130146;-48
2022/12/13 06:49:34;;;;;;;1.92;1.60;;;;;;;19.28;30.25;100916.25;16130216;19;129685;-53
2022/12/13 06:54:55;;;;;;;3.97;1.38;;;;;;;19.37;29.92;100908.38;16128005;19;130071;-66
2022/12/13 07:00:20;;;;;;;2.83;1.75;;;;;;;19.28;30.25;100907.94;16129325;19;130491;-54
2022/12/13 07:05:44;;;;;;;2.20;1.60;;;;;;;19.14;30.38;100912.09;16130519;19;129252;-56
2022/12/13 07:11:05;;;;;;;3.65;1.90;;;;;;;18.95;30.40;100920.63;16128862;19;129616;-49
2022/12/13 07:16:27;;;;;;;5.47;1.90;;;;;;;18.74;30.26;100931.31;16129002;19;129318;-51
2022/12/13 07:21:49;;;;;;;1.73;1.60;;;;;;;18.54;30.24;100928.13;16131972;19;130608;-47
2022/12/13 07:27:11;;;;;;;5.38;2.17;;;;;;;18.35;30.44;100928.25;16130697;19;129611;-47
2022/12/13 07:32:33;;;;;;;2.10;1.58;;;;;;;18.17;30.99;100931.19;16130215;19;134377;-49
2022/12/13 07:37:54;;;;;;;2.47;1.73;;;;;;;18.01;30.92;100936.38;16131311;19;130580;-48
2022/12/13 07:43:16;;;;;;;2.72;2.00;;;;;;;17.85;30.89;100941.56;16128265;19;129780;-49
2022/12/13 07:48:39;;;;;;;4.53;2.55;;;;;;;17.72;30.69;100961.19;16128777;19;129323;-59
2022/12/13 07:54:01;;;;;;;2.65;1.98;;;;;;;17.62;31.14;100949.84;16128016;19;130565;-58
2022/12/13 07:59:27;;;;;;;2.58;1.90;;;;;;;17.69;31.04;100950.59;16125469;19;130073;-63
2022/12/13 08:04:50;;;;;;;2.10;1.70;;;;;;;17.90;31.01;100945.53;16126817;19;130092;-62
2022/12/13 08:10:15;;;;;;;2.92;1.90;;;;;;;18.15;30.77;100943.38;16128858;19;129808;-54
2022/12/13 08:15:37;;;;;;;3.03;1.75;;;;;;;18.43;30.70;100949.25;16129678;19;129113;-48
2022/12/13 08:21:00;;;;;;;2.08;1.50;;;;;;;18.66;30.55;100959.44;16129416;19;130248;-48
2022/12/13 08:26:22;;;;;;;2.90;1.90;;;;;;;18.84;30.26;100955.63;16126365;19;128935;-48
2022/12/13 08:31:44;;;;;;;2.30;1.70;;;;;;;19.10;30.20;100964.44;16124420;19;129903;-48
2022/12/13 08:37:06;;;;;;;2.88;1.63;;;;;;;19.51;29.84;100969.91;16125979;19;128917;-53
2022/12/13 08:42:28;;;;;;;2.85;1.75;;;;;;;19.81;29.53;100961.22;16125433;19;132160;-52
2022/12/13 08:47:50;;;;;;;4.80;1.80;;;;;;;20.02;29.08;100966.28;16126984;19;130050;-52
2022/12/13 08:53:12;;;;;;;2.95;1.50;;;;;;;20.04;29.31;100975.22;16125248;19;129607;-53
2022/12/13 08:58:50;;;;;;;2.20;1.88;;;;;;;19.98;29.26;100974.25;16123486;19;129509;-50
2022/12/13 09:04:12;;;;;;;2.95;1.85;;;;;;;19.86;29.55;100970.75;16124929;19;128968;-53
2022/12/13 09:09:34;;;;;;;3.90;1.75;;;;;;;19.72;29.55;100993.28;16123197;19;129520;-55
2022/12/13 09:14:58;;;;;;;5.35;1.85;;;;;;;19.52;29.50;100988.22;16121880;19;131264;-52
2022/12/13 09:20:22;;;;;;;5.00;1.88;;;;;;;19.34;29.77;100981.81;16138169;19;129585;-54
2022/12/13 09:25:59;;;;;;;7.22;2.92;;;;;;;19.10;29.67;100994.06;16141652;19;130049;-56
2022/12/13 09:31:26;;;;;;;;;;;;;;;18.84;29.63;100988.88;16138451;19;130241;-53
2022/12/13 09:36:48;;;;;;;9.98;3.83;;;;;;;18.73;29.77;100987.00;16141380;19;131670;-53
2022/12/13 09:42:19;;;;;;;13.20;3.35;;;;;;;18.61;29.73;100995.31;16136736;19;129298;-56
2022/12/13 09:47:44;;;;;;;10.30;3.72;;;;;;;18.53;29.87;100987.41;16139147;19;129372;-53
2022/12/13 09:53:13;;;;;;;9.90;3.42;;;;;;;18.45;29.73;100997.78;16138629;19;131175;-50
2022/12/13 09:58:55;;;;;;;6.20;3.60;;;;;;;18.38;29.83;100991.50;16137524;19;130472;-54
2022/12/13 10:04:17;;;;;;;9.30;3.10;;;;;;;18.31;30.28;100977.78;16143763;19;129509;-53
2022/12/13 10:09:39;;;;;;;11.07;3.65;;;;;;;18.27;30.20;100978.50;16141163;19;130144;-57
2022/12/13 10:15:02;;;;;;;8.43;3.92;;;;;;;18.31;29.69;100979.72;16140322;19;129824;-50
2022/12/13 10:20:27;;;;;;;12.52;3.33;;;;;;;18.42;29.76;100964.16;16136506;19;129266;-50
2022/12/13 10:25:55;;;;;;;6.70;3.10;;;;;;;18.60;29.66;100974.25;16140454;19;129035;-55
2022/12/13 10:31:24;;;;;;;9.35;3.88;;;;;;;18.74;29.57;100949.88;16134085;19;130390;-49
2022/12/13 10:36:47;;;;;;;8.35;3.17;;;;;;;18.89;29.23;100946.56;16133542;19;129393;-60
2022/12/13 10:42:14;;;;;;;9.27;4.35;;;;;;;19.04;29.48;100949.63;16134531;19;129785;-60
2022/12/13 10:47:44;;;;;;;12.43;4.07;;;;;;;19.18;28.93;100938.22;16136628;19;129279;-60
2022/12/13 10:53:18;;;;;;;19.50;3.63;;;;;;;19.31;28.72;100937.94;16135209;19;129870;-60
2022/12/13 10:58:45;;;;;;;13.38;3.90;;;;;;;19.34;28.96;100918.00;16135060;19;129785;-60
2022/12/13 11:04:31;;;;;;;6.90;3.78;;;;;;;19.33;28.79;100919.09;16131752;19;129138;-59
2022/12/13 11:09:53;;;;;;;10.65;3.85;;;;;;;19.31;29.41;100928.78;16133971;19;129860;-60
2022/12/13 11:15:22;;;;;;;12.88;3.67;;;;;;;19.31;28.94;100909.34;16130733;19;129715;-60
2022/12/13 11:21:10;;;;;;;14.82;3.72;;;;;;;19.27;29.12;100897.94;16131557;19;129265;-59
2022/12/13 11:26:36;;;;;;;21.73;5.03;;;;;;;19.22;29.34;100895.06;16132874;19;129452;-60
2022/12/13 11:32:04;;;;;;;21.33;4.88;;;;;;;19.20;29.44;100888.91;16138055;19;131349;-60
2022/12/13 11:37:47;;;;;;;11.63;5.03;;;;;;;19.14;28.88;100870.47;16126296;19;130365;-60
2022/12/13 11:43:38;;;;;;;19.35;5.40;;;;;;;19.08;29.07;100872.34;16124817;19;130078;-59
2022/12/13 11:49:09;;;;;;;20.00;5.45;;;;;;;18.99;28.79;100869.13;16128806;19;129863;-60
2022/12/13 11:54:45;;;;;;;12.90;5.45;;;;;;;18.89;28.93;100860.63;16127359;19;129371;-60
2022/12/13 12:00:26;;;;;;;16.58;5.28;;;;;;;18.77;29.11;100835.75;16127504;19;129173;-60
2022/12/13 12:06:04;;;;;;;12.38;5.30;;;;;;;18.64;29.27;100828.59;16128658;19;129860;-60
2022/12/13 12:11:34;;;;;;;10.30;4.65;;;;;;;18.52;29.47;100836.13;16122840;19;130715;-60
2022/12/13 12:16:57;;;;;;;12.40;5.28;;;;;;;18.41;29.33;100827.63;16127746;19;130217;-60
2022/12/13 12:22:45;;;;;;;13.98;4.18;;;;;;;18.34;29.89;100834.34;16124272;19;129599;-61
2022/12/13 12:28:28;;;;;;;6.65;4.60;;;;;;;18.21;29.95;100835.50;16122909;19;130828;-61
2022/12/13 12:34:27;;;;;;;25.25;5.45;;;;;;;18.14;29.90;100830.94;16123776;19;128935;-61
2022/12/13 12:40:08;;;;;;;20.73;7.07;;;;;;;18.23;29.54;100827.75;16118515;19;129749;-60
2022/12/13 12:46:02;;;;;;;26.17;8.43;;;;;;;18.35;28.72;100814.72;16114117;19;129515;-60
2022/12/13 12:51:59;;;;;;;25.15;7.28;;;;;;;18.55;28.94;100819.00;16115537;19;129378;-60
2022/12/13 12:58:07;;;;;;;21.17;7.53;;;;;;;18.82;28.32;100821.16;16119755;19;129593;-60
2022/12/13 13:03:30;;;;;;;;;;;;;;;19.10;28.03;100827.69;16122301;19;129579;-60
2022/12/13 13:08:58;;;;;;;14.88;5.47;;;;;;;19.43;27.98;100812.19;16119202;19;133202;-60
2022/12/13 13:14:22;;;;;;;19.35;5.72;;;;;;;19.76;27.93;100810.41;16118486;19;129600;-60
2022/12/13 13:19:46;;;;;;;14.27;5.28;;;;;;;19.98;28.01;100802.94;16118295;19;129958;-61
2022/12/13 13:25:32;;;;;;;16.08;4.47;;;;;;;20.09;27.35;100797.53;16118301;19;129585;-60
2022/12/13 13:31:07;;;;;;;15.77;4.78;;;;;;;20.04;27.92;100806.63;16106641;19;129956;-59
2022/12/13 13:36:39;;;;;;;11.90;4.32;;;;;;;19.89;27.49;100782.28;16118772;19;129560;-60
2022/12/13 13:42:13;;;;;;;11.88;5.25;;;;;;;19.70;27.75;100776.19;16120180;19;129470;-60
2022/12/13 13:47:37;;;;;;;10.85;4.57;;;;;;;19.51;27.79;100770.13;16121939;19;129219;-59
2022/12/13 13:53:14;;;;;;;12.48;4.82;;;;;;;19.31;28.35;100754.88;16119251;19;129810;-59
2022/12/13 13:58:47;;;;;;;13.35;6.45;;;;;;;19.12;28.63;100739.56;16118257;19;129243;-58
2022/12/13 14:04:47;;;;;;;11.48;6.35;;;;;;;18.92;28.07;100752.03;16125124;19;129875;-58
2022/12/13 14:10:34;;;;;;;19.98;5.82;;;;;;;18.76;28.52;100751.78;16127767;19;129916;-59
2022/12/13 14:16:35;;;;;;;13.23;6.72;;;;;;;18.61;28.35;100746.81;16127424;19;129848;-59
2022/12/13 14:22:00;;;;;;;26.40;6.80;;;;;;;18.49;28.81;100740.50;16125131;19;129893;-59
2022/12/13 14:27:44;;;;;;;12.65;6.05;;;;;;;18.38;28.47;100733.91;16126638;19;129830;-59
2022/12/13 14:33:20;;;;;;;8.90;5.68;;;;;;;18.25;28.79;100737.84;16123748;19;131023;-59
2022/12/13 14:38:41;;;;;;;18.10;5.53;;;;;;;18.12;29.10;100727.06;16127932;19;130032;-59
2022/12/13 14:44:23;;;;;;;18.35;6.32;;;;;;;18.06;28.76;100726.13;16133135;19;130801;-59
2022/12/13 14:49:50;;;;;;;8.40;5.30;;;;;;;17.93;28.98;100715.34;16132296;19;129195;-59
2022/12/13 14:55:32;;;;;;;7.05;4.50;;;;;;;17.91;29.22;100710.03;16130928;19;129574;-59
2022/12/13 15:00:53;;;;;;;10.48;4.75;;;;;;;18.03;28.94;100710.00;16132028;19;129484;-59
2022/12/13 15:06:20;;;;;;;8.53;3.90;;;;;;;18.25;28.80;100692.69;16130981;19;129396;-59
2022/12/13 15:11:43;;;;;;;5.30;3.90;;;;;;;18.54;28.39;100689.88;16131732;19;129440;-67
2022/12/13 15:17:05;;;;;;;9.75;4.10;;;;;;;18.76;28.55;100671.41;16133019;19;129663;-65
2022/12/13 15:22:27;;;;;;;4.53;3.35;;;;;;;18.98;28.22;100681.69;16132126;19;129450;-64
2022/12/13 15:27:53;;;;;;;7.15;3.72;;;;;;;19.16;28.41;100674.19;16131977;19;129338;-60
2022/12/13 15:33:17;;;;;;;5.20;3.00;;;;;;;19.25;28.33;100666.31;16129099;19;129617;-60
2022/12/13 15:38:46;;;;;;;6.13;3.40;;;;;;;19.29;27.99;100671.06;16132922;19;130058;-61
2022/12/13 15:44:19;;;;;;;4.05;2.75;;;;;;;19.24;27.86;100665.44;16127985;19;129056;-60
2022/12/13 15:49:49;;;;;;;4.43;3.28;;;;;;;19.13;27.91;100663.59;16128949;19;129873;-61
2022/12/13 15:55:11;;;;;;;5.22;3.30;;;;;;;19.00;28.47;100660.09;16126643;19;129631;-61
2022/12/13 16:00:47;;;;;;;4.60;3.13;;;;;;;18.86;28.30;100664.31;16126122;19;129747;-60
2022/12/13 16:06:16;;;;;;;4.72;3.00;;;;;;;18.72;28.39;100667.44;16122331;19;129557;-61
2022/12/13 16:11:48;;;;;;;4.22;2.92;;;;;;;18.56;28.55;100657.25;16124774;19;129580;-61
2022/12/13 16:17:28;;;;;;;3.85;2.80;;;;;;;18.44;29.07;100663.69;16125946;19;129034;-60
2022/12/13 16:22:50;;;;;;;3.95;2.90;;;;;;;18.29;29.22;100655.91;16120487;19;130048;-60
2022/12/13 16:28:16;;;;;;;6.45;3.10;;;;;;;18.19;28.95;100646.63;16118453;19;129604;-60
2022/12/13 16:33:38;;;;;;;4.22;2.90;;;;;;;18.06;28.92;100645.84;16124482;19;135126;-60
2022/12/13 16:38:59;;;;;;;6.53;3.33;;;;;;;17.97;29.26;100633.50;16120759;19;130153;-60
2022/12/13 16:44:40;;;;;;;4.88;2.85;;;;;;;17.88;29.04;100632.22;16123254;19;129239;-60
2022/12/13 16:50:08;;;;;;;4.57;3.05;;;;;;;17.77;29.23;100631.19;16123564;19;129015;-60
2022/12/13 16:55:30;;;;;;;8.40;3.00;;;;;;;17.71;29.66;100638.56;16124581;19;130127;-59
2022/12/13 17:00:52;;;;;;;13.57;3.70;;;;;;;17.66;29.33;100646.75;16121457;19;130455;-59
2022/12/13 17:06:22;;;;;;;6.63;3.70;;;;;;;17.71;29.18;100641.31;16119207;19;129396;-59
2022/12/13 17:11:44;;;;;;;6.72;2.85;;;;;;;17.91;29.10;100648.31;16124318;19;128955;-60
2022/12/13 17:17:06;;;;;;;6.72;3.00;;;;;;;18.20;28.47;100642.75;16123666;19;130551;-59
2022/12/13 17:22:33;;;;;;;5.95;3.47;;;;;;;18.50;28.43;100639.69;16122310;19;130622;-60
2022/12/13 17:27:55;;;;;;;4.35;3.08;;;;;;;18.76;28.11;100646.47;16121589;19;130392;-60
2022/12/13 17:33:17;;;;;;;9.30;3.75;;;;;;;18.97;27.75;100643.16;16121995;19;129601;-59
2022/12/13 17:38:46;;;;;;;10.13;4.05;;;;;;;19.13;27.30;100638.66;16125784;19;129214;-60
2022/12/13 17:44:09;;;;;;;10.77;3.28;;;;;;;19.18;27.40;100638.72;16135079;19;129386;-59
2022/12/13 17:49:31;;;;;;;7.18;2.90;;;;;;;19.18;27.47;100633.19;16137058;19;129463;-59
2022/12/13 17:54:53;;;;;;;5.63;2.90;;;;;;;19.12;27.63;100634.19;16136104;19;131084;-60
2022/12/13 18:00:15;;;;;;;5.45;3.03;;;;;;;19.02;27.53;100630.19;16137521;19;130039;-60
2022/12/13 18:05:36;;;;;;;8.75;2.90;;;;;;;18.90;27.55;100610.06;16133725;19;129435;-59
2022/12/13 18:10:58;;;;;;;5.57;2.90;;;;;;;18.84;27.80;100613.84;16133737;19;129789;-59
2022/12/13 18:16:40;;;;;;;10.35;3.03;;;;;;;18.86;27.57;100597.81;16131280;19;130690;-60
2022/12/13 18:22:02;;;;;;;8.80;3.10;;;;;;;18.90;27.66;100588.72;16132691;19;129567;-60
2022/12/13 18:27:23;;;;;;;6.82;2.60;;;;;;;18.97;27.58;100585.75;16130652;19;129769;-60
2022/12/13 18:32:45;;;;;;;4.97;3.22;;;;;;;19.01;27.65;100578.63;16132031;19;129585;-62
2022/12/13 18:38:08;;;;;;;8.10;2.78;;;;;;;19.03;27.67;100572.81;16131156;19;129654;-62
2022/12/13 18:43:29;;;;;;;6.45;2.85;;;;;;;18.98;27.71;100567.22;16132681;19;129381;-62
2022/12/13 18:48:51;;;;;;;3.13;2.35;;;;;;;18.88;28.07;100552.13;16129402;19;129142;-63
2022/12/13 18:54:13;;;;;;;7.38;2.90;;;;;;;18.81;27.97;100556.19;16128716;19;130313;-59
2022/12/13 18:59:34;;;;;;;3.67;2.35;;;;;;;18.70;28.12;100555.19;16130404;19;129204;-59
2022/12/13 19:04:56;;;;;;;4.43;3.10;;;;;;;18.60;27.80;100545.66;16134512;19;131247;-58
2022/12/13 19:10:18;;;;;;;4.72;2.78;;;;;;;18.49;27.87;100532.75;16133165;19;130161;-60
2022/12/13 19:15:40;;;;;;;5.40;3.00;;;;;;;18.39;28.33;100530.66;16134981;19;131071;-60
2022/12/13 19:21:06;;;;;;;3.53;2.50;;;;;;;18.31;28.31;100525.53;16126829;19;129994;-60
2022/12/13 19:26:28;;;;;;;4.57;2.83;;;;;;;18.22;28.51;100522.34;16126480;19;132251;-61
2022/12/13 19:31:50;;;;;;;18.10;3.97;;;;;;;18.14;28.65;100509.78;16127903;19;129290;-63
2022/12/13 19:37:11;;;;;;;14.20;3.25;;;;;;;18.19;28.54;100508.19;16127522;19;129321;-63
2022/12/13 19:42:33;;;;;;;12.85;3.80;;;;;;;18.37;28.40;100502.34;16126926;19;130040;-63
2022/12/13 19:47:55;;;;;;;11.80;3.10;;;;;;;18.65;28.44;100492.25;16128069;19;129778;-64
2022/12/13 19:53:17;;;;;;;16.15;3.55;;;;;;;18.95;28.18;100485.41;16127059;19;130093;-63
2022/12/13 19:58:39;;;;;;;9.95;3.10;;;;;;;19.21;27.83;100469.06;16129002;19;130002;-65
2022/12/13 20:04:01;;;;;;;14.90;3.03;;;;;;;19.33;27.69;100475.28;16125000;19;129564;-65
2022/12/13 20:09:22;;;;;;;6.63;2.90;;;;;;;19.37;27.59;100459.81;16125519;19;129917;-62
2022/12/13 20:14:44;;;;;;;10.60;3.45;;;;;;;19.35;27.81;100459.22;16124007;19;129887;-63
2022/12/13 20:20:06;;;;;;;13.10;3.55;;;;;;;19.29;27.37;100453.88;16121074;19;130038;-63
2022/12/13 20:25:28;;;;;;;5.22;3.03;;;;;;;19.17;27.79;100454.03;16127380;19;129564;-62
2022/12/13 20:30:50;;;;;;;10.05;2.92;;;;;;;19.06;28.08;100453.94;16121281;19;129502;-62
2022/12/13 20:36:17;;;;;;;17.45;3.78;;;;;;;19.00;28.24;100449.41;16124982;19;130186;-62
2022/12/13 20:41:48;;;;;;;9.43;2.80;;;;;;;18.93;28.46;100434.94;16122685;19;129745;-62
2022/12/13 20:47:09;;;;;;;11.93;3.00;;;;;;;18.95;28.08;100429.13;16123560;19;129847;-62
2022/12/13 20:52:31;;;;;;;16.95;3.45;;;;;;;19.07;28.53;100422.34;16123341;19;129259;-62
2022/12/13 20:57:53;;;;;;;6.20;2.53;;;;;;;19.29;28.48;100407.59;16120663;19;130433;-61
2022/12/13 21:03:15;;;;;;;8.40;2.75;;;;;;;19.51;28.26;100398.34;16120993;19;129446;-62
2022/12/13 21:08:58;;;;;;;4.82;2.40;;;;;;;19.67;28.13;100400.13;16126424;19;130311;-62
2022/12/13 21:14:24;;;;;;;6.72;2.28;;;;;;;19.75;27.72;100389.63;16120490;19;129121;-62
2022/12/13 21:19:46;;;;;;;7.03;2.20;;;;;;;19.73;28.14;100392.69;16119200;19;130961;-64
2022/12/13 21:25:09;;;;;;;5.50;2.40;;;;;;;19.65;28.34;100385.69;16116720;19;129626;-63
2022/12/13 21:30:31;;;;;;;7.82;2.17;;;;;;;19.54;28.59;100386.72;16119748;19;129980;-63
2022/12/13 21:35:53;;;;;;;5.70;2.17;;;;;;;19.43;28.72;100387.75;16119290;19;129402;-63
2022/12/13 21:41:15;;;;;;;6.80;2.60;;;;;;;19.31;28.73;100380.44;16116555;19;130806;-63
2022/12/13 21:46:37;;;;;;;10.77;2.45;;;;;;;19.18;28.64;100380.84;16123912;19;130429;-63
2022/12/13 21:52:18;;;;;;;7.18;3.20;;;;;;;18.98;28.59;100379.53;16120588;19;129594;-62
2022/12/13 22:03:28;;;;;;;13.43;3.10;;;;;;;18.73;28.71;100360.72;16111986;19;130358;-62
2022/12/13 22:08:50;;;;;;;5.40;2.63;;;;;;;18.60;29.19;100359.19;16113844;19;129796;-62
2022/12/13 22:14:11;;;;;;;5.75;2.80;;;;;;;18.50;29.14;100339.69;16116640;19;129502;-63
2022/12/13 22:19:33;;;;;;;12.60;2.50;;;;;;;18.39;29.09;100345.09;16117904;19;130476;-62
2022/12/13 22:24:55;;;;;;;6.90;2.10;;;;;;;18.29;29.28;100333.88;16120739;19;130681;-63
2022/12/13 22:30:17;;;;;;;7.18;2.25;;;;;;;18.19;29.17;100333.75;16132307;19;130638;-62
2022/12/13 22:35:39;;;;;;;3.25;1.88;;;;;;;18.12;29.09;100318.16;16131243;19;130363;-62
2022/12/13 22:41:04;;;;;;;6.43;2.08;;;;;;;18.04;29.01;100321.41;16129471;19;129655;-62
2022/12/13 22:46:26;;;;;;;2.75;2.00;;;;;;;17.96;29.16;100335.69;16126535;19;129552;-62
2022/12/13 22:51:48;;;;;;;2.92;1.90;;;;;;;17.90;29.38;100326.47;16125482;19;129597;-62
2022/12/13 22:57:10;;;;;;;5.00;1.88;;;;;;;17.82;29.22;100322.22;16122871;19;129870;-62
2022/12/13 23:02:31;;;;;;;4.15;2.13;;;;;;;17.77;29.59;100333.22;16125324;19;129637;-62
2022/12/13 23:07:53;;;;;;;3.50;2.00;;;;;;;17.74;29.34;100338.41;16130621;19;130040;-63
2022/12/13 23:13:15;;;;;;;1.70;1.60;;;;;;;17.69;29.76;100330.88;16129524;19;130303;-62
2022/12/13 23:18:37;;;;;;;2.75;2.00;;;;;;;17.65;29.46;100335.25;16132142;19;129515;-63
2022/12/13 23:23:59;;;;;;;2.60;1.70;;;;;;;17.61;29.70;100332.16;16130494;19;129603;-63
2022/12/13 23:29:20;;;;;;;2.47;1.50;;;;;;;17.53;29.76;100330.63;16129553;19;129891;-63
2022/12/13 23:34:42;;;;;;;2.60;1.83;;;;;;;17.50;29.88;100322.81;16128730;19;129617;-68
2022/12/13 23:40:04;;;;;;;2.42;1.60;;;;;;;17.45;29.84;100311.69;16127584;19;129297;-65
2022/12/13 23:45:26;;;;;;;3.58;1.65;;;;;;;17.41;29.98;100296.69;16129119;19;129341;-70
2022/12/13 23:50:48;;;;;;;2.80;1.80;;;;;;;17.36;29.72;100294.69;16128836;19;130832;-70
2022/12/13 23:56:12;;;;;;;2.47;1.70;;;;;;;17.34;29.60;100285.00;16128799;19;129335;-62
